sensor_id;sensor_type;location;lat;lon;timestamp;temperature;humidity
70534;SHT31;58088;51.186;17.130;2024-03-17T00:01:08;8.18;65.26
70534;SHT31;58088;51.186;17.130;2024-03-17T00:03:35;8.13;65.31
70534;SHT31;58088;51.186;17.130;2024-03-17T00:06:01;8.11;65.30
70534;SHT31;58088;51.186;17.130;2024-03-17T00:08:28;8.11;65.29
70534;SHT31;58088;51.186;17.130;2024-03-17T00:10:54;8.05;65.29
70534;SHT31;58088;51.186;17.130;2024-03-17T00:13:20;8.00;65.41
70534;SHT31;58088;51.186;17.130;2024-03-17T00:15:50;7.96;65.49
70534;SHT31;58088;51.186;17.130;2024-03-17T00:18:17;7.94;65.49
70534;SHT31;58088;51.186;17.130;2024-03-17T00:20:43;7.92;65.50
70534;SHT31;58088;51.186;17.130;2024-03-17T00:23:10;7.88;65.46
70534;SHT31;58088;51.186;17.130;2024-03-17T00:25:37;7.85;65.60
70534;SHT31;58088;51.186;17.130;2024-03-17T00:28:05;7.84;65.58
70534;SHT31;58088;51.186;17.130;2024-03-17T00:30:32;7.79;65.59
70534;SHT31;58088;51.186;17.130;2024-03-17T00:32:59;7.75;65.68
70534;SHT31;58088;51.186;17.130;2024-03-17T00:35:25;7.71;65.76
70534;SHT31;58088;51.186;17.130;2024-03-17T00:37:52;7.68;65.82
70534;SHT31;58088;51.186;17.130;2024-03-17T00:40:19;7.66;65.90
70534;SHT31;58088;51.186;17.130;2024-03-17T00:42:46;7.64;65.90
70534;SHT31;58088;51.186;17.130;2024-03-17T00:45:13;7.58;66.03
70534;SHT31;58088;51.186;17.130;2024-03-17T00:47:39;7.53;66.21
70534;SHT31;58088;51.186;17.130;2024-03-17T00:50:06;7.49;66.33
70534;SHT31;58088;51.186;17.130;2024-03-17T00:52:34;7.45;66.41
70534;SHT31;58088;51.186;17.130;2024-03-17T00:55:01;7.40;66.56
70534;SHT31;58088;51.186;17.130;2024-03-17T00:57:27;7.36;66.56
70534;SHT31;58088;51.186;17.130;2024-03-17T00:59:54;7.32;66.68
70534;SHT31;58088;51.186;17.130;2024-03-17T01:02:20;7.29;66.73
70534;SHT31;58088;51.186;17.130;2024-03-17T01:04:47;7.26;66.89
70534;SHT31;58088;51.186;17.130;2024-03-17T01:07:14;7.25;66.92
70534;SHT31;58088;51.186;17.130;2024-03-17T01:09:40;7.23;67.02
70534;SHT31;58088;51.186;17.130;2024-03-17T01:12:06;7.21;67.03
70534;SHT31;58088;51.186;17.130;2024-03-17T01:14:32;7.20;67.09
70534;SHT31;58088;51.186;17.130;2024-03-17T01:16:59;7.14;67.14
70534;SHT31;58088;51.186;17.130;2024-03-17T01:19:30;7.09;67.26
70534;SHT31;58088;51.186;17.130;2024-03-17T01:21:59;7.07;67.33
70534;SHT31;58088;51.186;17.130;2024-03-17T01:24:26;7.03;67.43
70534;SHT31;58088;51.186;17.130;2024-03-17T01:26:57;7.02;67.55
70534;SHT31;58088;51.186;17.130;2024-03-17T01:29:25;7.00;67.59
70534;SHT31;58088;51.186;17.130;2024-03-17T01:31:52;6.99;67.60
70534;SHT31;58088;51.186;17.130;2024-03-17T01:34:18;6.97;67.60
70534;SHT31;58088;51.186;17.130;2024-03-17T01:36:45;6.97;67.60
70534;SHT31;58088;51.186;17.130;2024-03-17T01:39:12;6.96;67.60
70534;SHT31;58088;51.186;17.130;2024-03-17T01:41:38;6.95;67.60
70534;SHT31;58088;51.186;17.130;2024-03-17T01:44:05;6.93;67.58
70534;SHT31;58088;51.186;17.130;2024-03-17T01:46:32;6.86;67.67
70534;SHT31;58088;51.186;17.130;2024-03-17T01:48:59;6.82;67.65
70534;SHT31;58088;51.186;17.130;2024-03-17T01:51:26;6.80;67.68
70534;SHT31;58088;51.186;17.130;2024-03-17T01:53:53;6.74;67.69
70534;SHT31;58088;51.186;17.130;2024-03-17T01:56:23;6.71;67.78
70534;SHT31;58088;51.186;17.130;2024-03-17T01:58:50;6.71;67.80
70534;SHT31;58088;51.186;17.130;2024-03-17T02:05:05;6.61;67.84
70534;SHT31;58088;51.186;17.130;2024-03-17T02:07:32;6.55;67.97
70534;SHT31;58088;51.186;17.130;2024-03-17T02:09:58;6.52;68.02
70534;SHT31;58088;51.186;17.130;2024-03-17T02:12:25;6.51;68.07
70534;SHT31;58088;51.186;17.130;2024-03-17T02:14:51;6.47;68.16
70534;SHT31;58088;51.186;17.130;2024-03-17T02:17:17;6.43;68.27
70534;SHT31;58088;51.186;17.130;2024-03-17T02:19:44;6.40;68.43
70534;SHT31;58088;51.186;17.130;2024-03-17T02:22:13;6.39;68.46
70534;SHT31;58088;51.186;17.130;2024-03-17T02:24:43;6.42;68.41
70534;SHT31;58088;51.186;17.130;2024-03-17T02:27:10;6.39;68.40
70534;SHT31;58088;51.186;17.130;2024-03-17T02:29:36;6.37;68.45
70534;SHT31;58088;51.186;17.130;2024-03-17T02:32:03;6.36;68.40
70534;SHT31;58088;51.186;17.130;2024-03-17T02:34:35;6.32;68.36
70534;SHT31;58088;51.186;17.130;2024-03-17T02:37:03;6.30;68.51
70534;SHT31;58088;51.186;17.130;2024-03-17T02:39:31;6.29;68.48
70534;SHT31;58088;51.186;17.130;2024-03-17T02:42:01;6.26;68.41
70534;SHT31;58088;51.186;17.130;2024-03-17T02:44:33;6.24;68.43
70534;SHT31;58088;51.186;17.130;2024-03-17T02:47:01;6.19;68.54
70534;SHT31;58088;51.186;17.130;2024-03-17T02:49:35;6.15;68.55
70534;SHT31;58088;51.186;17.130;2024-03-17T02:52:06;6.14;68.60
70534;SHT31;58088;51.186;17.130;2024-03-17T02:54:36;6.14;68.60
70534;SHT31;58088;51.186;17.130;2024-03-17T02:57:03;6.14;68.46
70534;SHT31;58088;51.186;17.130;2024-03-17T02:59:30;6.09;68.30
70534;SHT31;58088;51.186;17.130;2024-03-17T03:01:59;6.07;68.27
70534;SHT31;58088;51.186;17.130;2024-03-17T03:04:27;6.05;68.17
70534;SHT31;58088;51.186;17.130;2024-03-17T03:06:53;6.02;68.18
70534;SHT31;58088;51.186;17.130;2024-03-17T03:09:19;6.00;68.13
70534;SHT31;58088;51.186;17.130;2024-03-17T03:11:57;5.97;68.12
70534;SHT31;58088;51.186;17.130;2024-03-17T03:14:26;5.97;68.17
70534;SHT31;58088;51.186;17.130;2024-03-17T03:16:52;5.97;68.10
70534;SHT31;58088;51.186;17.130;2024-03-17T03:19:18;5.95;68.10
70534;SHT31;58088;51.186;17.130;2024-03-17T03:21:45;5.93;68.16
70534;SHT31;58088;51.186;17.130;2024-03-17T03:24:13;5.91;68.10
70534;SHT31;58088;51.186;17.130;2024-03-17T03:26:41;5.87;68.18
70534;SHT31;58088;51.186;17.130;2024-03-17T03:29:07;5.86;68.22
70534;SHT31;58088;51.186;17.130;2024-03-17T03:31:33;5.85;68.22
70534;SHT31;58088;51.186;17.130;2024-03-17T03:33:59;5.83;68.19
70534;SHT31;58088;51.186;17.130;2024-03-17T03:36:29;5.81;68.36
70534;SHT31;58088;51.186;17.130;2024-03-17T03:38:55;5.79;68.30
70534;SHT31;58088;51.186;17.130;2024-03-17T03:41:22;5.75;68.36
70534;SHT31;58088;51.186;17.130;2024-03-17T03:43:52;5.73;68.40
70534;SHT31;58088;51.186;17.130;2024-03-17T03:46:19;5.68;68.44
70534;SHT31;58088;51.186;17.130;2024-03-17T03:48:46;5.63;68.58
70534;SHT31;58088;51.186;17.130;2024-03-17T03:51:12;5.63;68.60
70534;SHT31;58088;51.186;17.130;2024-03-17T03:53:39;5.59;68.63
70534;SHT31;58088;51.186;17.130;2024-03-17T03:56:08;5.56;68.64
70534;SHT31;58088;51.186;17.130;2024-03-17T03:58:36;5.51;68.70
70534;SHT31;58088;51.186;17.130;2024-03-17T04:01:05;5.48;68.83
70534;SHT31;58088;51.186;17.130;2024-03-17T04:03:33;5.49;68.83
70534;SHT31;58088;51.186;17.130;2024-03-17T04:06:04;5.45;68.88
70534;SHT31;58088;51.186;17.130;2024-03-17T04:08:33;5.42;68.94
70534;SHT31;58088;51.186;17.130;2024-03-17T04:11:01;5.40;69.01
70534;SHT31;58088;51.186;17.130;2024-03-17T04:13:28;5.38;69.01
70534;SHT31;58088;51.186;17.130;2024-03-17T04:15:56;5.35;69.07
70534;SHT31;58088;51.186;17.130;2024-03-17T04:18:25;5.32;69.04
70534;SHT31;58088;51.186;17.130;2024-03-17T04:20:53;5.29;69.14
70534;SHT31;58088;51.186;17.130;2024-03-17T04:23:20;5.24;69.22
70534;SHT31;58088;51.186;17.130;2024-03-17T04:25:50;5.19;69.28
70534;SHT31;58088;51.186;17.130;2024-03-17T04:28:18;5.17;69.28
70534;SHT31;58088;51.186;17.130;2024-03-17T04:30:44;5.14;69.27
70534;SHT31;58088;51.186;17.130;2024-03-17T04:33:12;5.14;69.29
70534;SHT31;58088;51.186;17.130;2024-03-17T04:35:39;5.14;69.20
70534;SHT31;58088;51.186;17.130;2024-03-17T04:38:09;5.10;69.18
70534;SHT31;58088;51.186;17.130;2024-03-17T04:40:42;5.08;69.30
70534;SHT31;58088;51.186;17.130;2024-03-17T04:43:08;5.07;69.24
70534;SHT31;58088;51.186;17.130;2024-03-17T04:45:34;5.04;69.21
70534;SHT31;58088;51.186;17.130;2024-03-17T04:48:01;5.03;69.24
70534;SHT31;58088;51.186;17.130;2024-03-17T04:50:28;5.03;69.26
70534;SHT31;58088;51.186;17.130;2024-03-17T04:52:58;5.01;69.33
70534;SHT31;58088;51.186;17.130;2024-03-17T04:55:25;5.01;69.31
70534;SHT31;58088;51.186;17.130;2024-03-17T04:57:52;5.01;69.30
70534;SHT31;58088;51.186;17.130;2024-03-17T05:00:18;5.01;69.27
70534;SHT31;58088;51.186;17.130;2024-03-17T05:02:46;5.00;69.30
70534;SHT31;58088;51.186;17.130;2024-03-17T05:05:13;4.99;69.30
70534;SHT31;58088;51.186;17.130;2024-03-17T05:07:39;4.98;69.38
70534;SHT31;58088;51.186;17.130;2024-03-17T05:10:05;4.99;69.42
70534;SHT31;58088;51.186;17.130;2024-03-17T05:12:32;5.01;69.42
70534;SHT31;58088;51.186;17.130;2024-03-17T05:14:58;5.03;69.39
70534;SHT31;58088;51.186;17.130;2024-03-17T05:17:24;5.09;69.37
70534;SHT31;58088;51.186;17.130;2024-03-17T05:19:51;5.19;69.32
70534;SHT31;58088;51.186;17.130;2024-03-17T05:22:17;5.38;69.23
70534;SHT31;58088;51.186;17.130;2024-03-17T05:24:43;5.61;68.90
70534;SHT31;58088;51.186;17.130;2024-03-17T05:27:10;5.78;68.56
70534;SHT31;58088;51.186;17.130;2024-03-17T05:29:36;5.96;68.36
70534;SHT31;58088;51.186;17.130;2024-03-17T05:32:04;6.21;68.10
70534;SHT31;58088;51.186;17.130;2024-03-17T05:34:31;6.32;67.79
70534;SHT31;58088;51.186;17.130;2024-03-17T05:36:58;6.42;67.57
70534;SHT31;58088;51.186;17.130;2024-03-17T05:39:24;6.47;67.34
70534;SHT31;58088;51.186;17.130;2024-03-17T05:41:51;6.53;67.18
70534;SHT31;58088;51.186;17.130;2024-03-17T05:44:17;6.84;66.87
70534;SHT31;58088;51.186;17.130;2024-03-17T05:46:44;7.20;66.31
70534;SHT31;58088;51.186;17.130;2024-03-17T05:49:10;7.70;65.60
70534;SHT31;58088;51.186;17.130;2024-03-17T05:51:36;8.15;64.84
70534;SHT31;58088;51.186;17.130;2024-03-17T05:54:03;8.66;64.06
70534;SHT31;58088;51.186;17.130;2024-03-17T05:56:29;9.08;63.09
70534;SHT31;58088;51.186;17.130;2024-03-17T05:58:55;9.50;62.09
70534;SHT31;58088;51.186;17.130;2024-03-17T06:01:22;9.93;61.19
70534;SHT31;58088;51.186;17.130;2024-03-17T06:03:52;10.35;60.19
70534;SHT31;58088;51.186;17.130;2024-03-17T06:06:19;10.80;59.41
70534;SHT31;58088;51.186;17.130;2024-03-17T06:08:46;10.95;58.11
70534;SHT31;58088;51.186;17.130;2024-03-17T06:11:12;10.98;57.31
70534;SHT31;58088;51.186;17.130;2024-03-17T06:13:38;11.15;57.15
70534;SHT31;58088;51.186;17.130;2024-03-17T06:16:05;11.41;56.25
70534;SHT31;58088;51.186;17.130;2024-03-17T06:18:31;11.62;55.91
70534;SHT31;58088;51.186;17.130;2024-03-17T06:20:58;11.75;55.24
70534;SHT31;58088;51.186;17.130;2024-03-17T06:23:27;11.82;54.87
70534;SHT31;58088;51.186;17.130;2024-03-17T06:25:53;11.99;54.50
70534;SHT31;58088;51.186;17.130;2024-03-17T06:28:21;12.23;53.83
70534;SHT31;58088;51.186;17.130;2024-03-17T06:30:57;12.37;53.40
70534;SHT31;58088;51.186;17.130;2024-03-17T06:33:25;12.32;52.75
70534;SHT31;58088;51.186;17.130;2024-03-17T06:35:53;12.42;52.52
70534;SHT31;58088;51.186;17.130;2024-03-17T06:38:21;12.36;51.96
70534;SHT31;58088;51.186;17.130;2024-03-17T06:40:50;12.36;51.87
70534;SHT31;58088;51.186;17.130;2024-03-17T06:43:19;12.41;51.63
70534;SHT31;58088;51.186;17.130;2024-03-17T06:45:59;12.52;51.38
70534;SHT31;58088;51.186;17.130;2024-03-17T06:48:28;12.58;50.93
70534;SHT31;58088;51.186;17.130;2024-03-17T06:50:54;12.49;50.69
70534;SHT31;58088;51.186;17.130;2024-03-17T06:53:24;12.42;50.66
70534;SHT31;58088;51.186;17.130;2024-03-17T06:55:59;12.30;50.33
70534;SHT31;58088;51.186;17.130;2024-03-17T06:58:40;12.27;50.45
70534;SHT31;58088;51.186;17.130;2024-03-17T07:01:07;12.26;50.19
70534;SHT31;58088;51.186;17.130;2024-03-17T07:03:35;12.18;49.88
70534;SHT31;58088;51.186;17.130;2024-03-17T07:06:02;12.21;50.14
70534;SHT31;58088;51.186;17.130;2024-03-17T07:08:29;12.35;50.29
70534;SHT31;58088;51.186;17.130;2024-03-17T07:10:57;12.33;50.25
70534;SHT31;58088;51.186;17.130;2024-03-17T07:13:25;12.21;49.88
70534;SHT31;58088;51.186;17.130;2024-03-17T07:15:54;12.14;49.79
70534;SHT31;58088;51.186;17.130;2024-03-17T07:18:20;12.00;49.85
70534;SHT31;58088;51.186;17.130;2024-03-17T07:20:46;11.84;50.09
70534;SHT31;58088;51.186;17.130;2024-03-17T07:23:14;11.82;50.45
70534;SHT31;58088;51.186;17.130;2024-03-17T07:25:41;11.66;50.22
70534;SHT31;58088;51.186;17.130;2024-03-17T07:28:08;11.46;50.49
70534;SHT31;58088;51.186;17.130;2024-03-17T07:30:35;11.30;50.37
70534;SHT31;58088;51.186;17.130;2024-03-17T07:33:01;11.51;50.96
70534;SHT31;58088;51.186;17.130;2024-03-17T07:35:27;11.76;51.12
70534;SHT31;58088;51.186;17.130;2024-03-17T07:37:53;11.94;50.53
70534;SHT31;58088;51.186;17.130;2024-03-17T07:40:20;11.83;49.77
70534;SHT31;58088;51.186;17.130;2024-03-17T07:42:46;11.59;49.73
70534;SHT31;58088;51.186;17.130;2024-03-17T07:45:12;11.38;49.86
70534;SHT31;58088;51.186;17.130;2024-03-17T07:47:39;11.18;50.37
70534;SHT31;58088;51.186;17.130;2024-03-17T07:50:05;10.92;50.49
70534;SHT31;58088;51.186;17.130;2024-03-17T07:52:32;10.83;50.99
70534;SHT31;58088;51.186;17.130;2024-03-17T07:54:58;10.75;51.23
70534;SHT31;58088;51.186;17.130;2024-03-17T07:57:24;10.59;51.79
70534;SHT31;58088;51.186;17.130;2024-03-17T07:59:50;10.48;52.33
70534;SHT31;58088;51.186;17.130;2024-03-17T08:02:20;10.54;52.94
70534;SHT31;58088;51.186;17.130;2024-03-17T08:04:46;10.61;52.84
70534;SHT31;58088;51.186;17.130;2024-03-17T08:07:12;10.50;52.75
70534;SHT31;58088;51.186;17.130;2024-03-17T08:09:39;10.13;52.46
70534;SHT31;58088;51.186;17.130;2024-03-17T08:12:05;9.89;53.12
70534;SHT31;58088;51.186;17.130;2024-03-17T08:14:32;9.80;53.71
70534;SHT31;58088;51.186;17.130;2024-03-17T08:16:58;9.78;53.71
70534;SHT31;58088;51.186;17.130;2024-03-17T08:19:24;9.78;53.58
70534;SHT31;58088;51.186;17.130;2024-03-17T08:21:52;10.01;53.35
70534;SHT31;58088;51.186;17.130;2024-03-17T08:24:30;10.07;51.38
70534;SHT31;58088;51.186;17.130;2024-03-17T08:26:56;10.15;51.16
70534;SHT31;58088;51.186;17.130;2024-03-17T08:29:22;10.33;50.19
70534;SHT31;58088;51.186;17.130;2024-03-17T08:31:48;10.39;49.72
70534;SHT31;58088;51.186;17.130;2024-03-17T08:34:15;10.44;49.49
70534;SHT31;58088;51.186;17.130;2024-03-17T08:36:41;10.48;48.97
70534;SHT31;58088;51.186;17.130;2024-03-17T08:39:08;10.37;48.39
70534;SHT31;58088;51.186;17.130;2024-03-17T08:41:36;10.35;48.80
70534;SHT31;58088;51.186;17.130;2024-03-17T08:44:03;10.41;48.77
70534;SHT31;58088;51.186;17.130;2024-03-17T08:46:29;10.58;48.42
70534;SHT31;58088;51.186;17.130;2024-03-17T08:48:57;10.75;47.88
70534;SHT31;58088;51.186;17.130;2024-03-17T08:51:24;10.87;47.64
70534;SHT31;58088;51.186;17.130;2024-03-17T08:53:50;10.88;47.46
70534;SHT31;58088;51.186;17.130;2024-03-17T08:56:18;10.96;47.23
70534;SHT31;58088;51.186;17.130;2024-03-17T08:58:46;11.02;46.81
70534;SHT31;58088;51.186;17.130;2024-03-17T09:01:14;10.99;46.91
70534;SHT31;58088;51.186;17.130;2024-03-17T09:03:42;11.19;47.31
70534;SHT31;58088;51.186;17.130;2024-03-17T09:06:15;11.50;46.67
70534;SHT31;58088;51.186;17.130;2024-03-17T09:08:42;11.58;45.62
70534;SHT31;58088;51.186;17.130;2024-03-17T09:11:11;11.35;44.94
70534;SHT31;58088;51.186;17.130;2024-03-17T09:13:39;11.06;45.58
70534;SHT31;58088;51.186;17.130;2024-03-17T09:16:06;10.92;46.33
70534;SHT31;58088;51.186;17.130;2024-03-17T09:18:36;10.91;46.76
70534;SHT31;58088;51.186;17.130;2024-03-17T09:21:04;10.98;47.36
70534;SHT31;58088;51.186;17.130;2024-03-17T09:23:36;11.07;47.59
70534;SHT31;58088;51.186;17.130;2024-03-17T09:26:09;11.20;47.43
70534;SHT31;58088;51.186;17.130;2024-03-17T09:28:43;11.29;46.83
70534;SHT31;58088;51.186;17.130;2024-03-17T09:31:12;11.31;45.87
70534;SHT31;58088;51.186;17.130;2024-03-17T09:33:39;11.35;46.02
70534;SHT31;58088;51.186;17.130;2024-03-17T09:36:06;11.44;46.59
70534;SHT31;58088;51.186;17.130;2024-03-17T09:38:37;11.46;46.34
70534;SHT31;58088;51.186;17.130;2024-03-17T09:41:05;11.27;45.90
70534;SHT31;58088;51.186;17.130;2024-03-17T09:43:34;11.18;45.98
70534;SHT31;58088;51.186;17.130;2024-03-17T09:46:04;11.08;46.39
70534;SHT31;58088;51.186;17.130;2024-03-17T09:48:33;11.15;46.94
70534;SHT31;58088;51.186;17.130;2024-03-17T09:51:02;11.31;46.96
70534;SHT31;58088;51.186;17.130;2024-03-17T09:53:30;11.41;46.86
70534;SHT31;58088;51.186;17.130;2024-03-17T09:56:10;11.37;46.80
70534;SHT31;58088;51.186;17.130;2024-03-17T09:58:48;11.28;46.60
70534;SHT31;58088;51.186;17.130;2024-03-17T10:01:16;11.13;46.41
70534;SHT31;58088;51.186;17.130;2024-03-17T10:03:46;11.01;46.59
70534;SHT31;58088;51.186;17.130;2024-03-17T10:06:27;10.97;46.47
70534;SHT31;58088;51.186;17.130;2024-03-17T10:08:57;11.01;46.45
70534;SHT31;58088;51.186;17.130;2024-03-17T10:11:41;11.25;47.10
70534;SHT31;58088;51.186;17.130;2024-03-17T10:14:08;11.56;46.79
70534;SHT31;58088;51.186;17.130;2024-03-17T10:16:36;11.73;47.26
70534;SHT31;58088;51.186;17.130;2024-03-17T10:19:14;11.67;46.54
70534;SHT31;58088;51.186;17.130;2024-03-17T10:21:50;11.59;46.34
70534;SHT31;58088;51.186;17.130;2024-03-17T10:24:25;11.55;46.29
70534;SHT31;58088;51.186;17.130;2024-03-17T10:26:57;11.47;45.97
70534;SHT31;58088;51.186;17.130;2024-03-17T10:29:26;11.43;46.09
70534;SHT31;58088;51.186;17.130;2024-03-17T10:32:01;11.45;46.35
70534;SHT31;58088;51.186;17.130;2024-03-17T10:34:39;11.57;46.44
70534;SHT31;58088;51.186;17.130;2024-03-17T10:39:51;11.51;45.48
70534;SHT31;58088;51.186;17.130;2024-03-17T10:42:24;11.50;45.46
70534;SHT31;58088;51.186;17.130;2024-03-17T10:45:02;11.53;45.93
70534;SHT31;58088;51.186;17.130;2024-03-17T10:47:35;11.61;45.87
70534;SHT31;58088;51.186;17.130;2024-03-17T10:50:01;11.56;44.61
70534;SHT31;58088;51.186;17.130;2024-03-17T10:52:32;11.32;44.21
70534;SHT31;58088;51.186;17.130;2024-03-17T10:55:02;11.25;44.73
70534;SHT31;58088;51.186;17.130;2024-03-17T11:00:13;11.38;45.54
70534;SHT31;58088;51.186;17.130;2024-03-17T11:02:51;11.60;45.80
70534;SHT31;58088;51.186;17.130;2024-03-17T11:05:24;11.75;45.18
70534;SHT31;58088;51.186;17.130;2024-03-17T11:07:57;11.89;44.89
70534;SHT31;58088;51.186;17.130;2024-03-17T11:10:28;11.99;44.03
70534;SHT31;58088;51.186;17.130;2024-03-17T11:13:02;12.18;44.57
70534;SHT31;58088;51.186;17.130;2024-03-17T11:20:39;12.63;43.22
70534;SHT31;58088;51.186;17.130;2024-03-17T11:23:10;12.66;42.78
70534;SHT31;58088;51.186;17.130;2024-03-17T11:25:59;12.66;42.52
70534;SHT31;58088;51.186;17.130;2024-03-17T11:34:37;12.67;42.46
70534;SHT31;58088;51.186;17.130;2024-03-17T11:37:08;12.92;42.75
70534;SHT31;58088;51.186;17.130;2024-03-17T11:40:42;12.94;41.83
70534;SHT31;58088;51.186;17.130;2024-03-17T11:43:03;12.98;41.44
70534;SHT31;58088;51.186;17.130;2024-03-17T11:45:32;12.95;40.13
70534;SHT31;58088;51.186;17.130;2024-03-17T11:47:59;12.89;40.07
70534;SHT31;58088;51.186;17.130;2024-03-17T11:50:32;12.86;40.90
70534;SHT31;58088;51.186;17.130;2024-03-17T11:53:00;12.99;41.63
70534;SHT31;58088;51.186;17.130;2024-03-17T11:55:27;13.02;41.54
70534;SHT31;58088;51.186;17.130;2024-03-17T11:57:56;13.15;41.95
70534;SHT31;58088;51.186;17.130;2024-03-17T12:00:24;13.24;41.29
70534;SHT31;58088;51.186;17.130;2024-03-17T12:02:52;13.19;40.72
70534;SHT31;58088;51.186;17.130;2024-03-17T12:05:19;13.05;40.41
70534;SHT31;58088;51.186;17.130;2024-03-17T12:07:47;12.93;40.42
70534;SHT31;58088;51.186;17.130;2024-03-17T12:10:14;12.91;40.51
70534;SHT31;58088;51.186;17.130;2024-03-17T12:12:46;12.93;40.48
70534;SHT31;58088;51.186;17.130;2024-03-17T12:15:18;12.85;40.36
70534;SHT31;58088;51.186;17.130;2024-03-17T12:17:45;12.71;40.87
70534;SHT31;58088;51.186;17.130;2024-03-17T12:20:18;12.61;40.91
70534;SHT31;58088;51.186;17.130;2024-03-17T12:22:47;12.59;40.85
70534;SHT31;58088;51.186;17.130;2024-03-17T12:25:16;12.64;40.99
70534;SHT31;58088;51.186;17.130;2024-03-17T12:27:45;12.74;41.12
70534;SHT31;58088;51.186;17.130;2024-03-17T12:30:14;12.71;41.25
70534;SHT31;58088;51.186;17.130;2024-03-17T12:32:43;12.47;41.34
70534;SHT31;58088;51.186;17.130;2024-03-17T12:35:14;12.36;42.52
70534;SHT31;58088;51.186;17.130;2024-03-17T12:37:43;12.33;42.82
70534;SHT31;58088;51.186;17.130;2024-03-17T12:40:21;12.30;42.62
70534;SHT31;58088;51.186;17.130;2024-03-17T12:42:49;12.42;42.60
70534;SHT31;58088;51.186;17.130;2024-03-17T12:45:20;12.63;42.76
70534;SHT31;58088;51.186;17.130;2024-03-17T12:47:48;12.73;41.65
70534;SHT31;58088;51.186;17.130;2024-03-17T12:50:16;12.65;40.38
70534;SHT31;58088;51.186;17.130;2024-03-17T12:52:51;12.61;41.22
70534;SHT31;58088;51.186;17.130;2024-03-17T12:55:21;12.57;42.18
70534;SHT31;58088;51.186;17.130;2024-03-17T12:58:08;12.47;42.69
70534;SHT31;58088;51.186;17.130;2024-03-17T13:01:02;12.34;42.53
70534;SHT31;58088;51.186;17.130;2024-03-17T13:03:36;12.16;42.72
70534;SHT31;58088;51.186;17.130;2024-03-17T13:06:05;11.99;42.93
70534;SHT31;58088;51.186;17.130;2024-03-17T13:08:36;11.86;43.16
70534;SHT31;58088;51.186;17.130;2024-03-17T13:11:02;11.74;43.39
70534;SHT31;58088;51.186;17.130;2024-03-17T13:13:34;11.75;44.02
70534;SHT31;58088;51.186;17.130;2024-03-17T13:16:01;11.72;43.70
70534;SHT31;58088;51.186;17.130;2024-03-17T13:18:27;11.62;43.02
70534;SHT31;58088;51.186;17.130;2024-03-17T13:20:53;11.57;42.81
70534;SHT31;58088;51.186;17.130;2024-03-17T13:23:20;11.59;43.02
70534;SHT31;58088;51.186;17.130;2024-03-17T13:25:52;11.64;43.11
70534;SHT31;58088;51.186;17.130;2024-03-17T13:28:18;11.71;42.60
70534;SHT31;58088;51.186;17.130;2024-03-17T13:30:45;11.80;42.05
70534;SHT31;58088;51.186;17.130;2024-03-17T13:33:12;11.87;41.82
70534;SHT31;58088;51.186;17.130;2024-03-17T13:35:39;11.81;40.39
70534;SHT31;58088;51.186;17.130;2024-03-17T13:38:07;11.70;39.78
70534;SHT31;58088;51.186;17.130;2024-03-17T13:40:36;11.66;39.66
70534;SHT31;58088;51.186;17.130;2024-03-17T13:43:05;11.70;40.04
70534;SHT31;58088;51.186;17.130;2024-03-17T13:45:38;11.80;40.30
70534;SHT31;58088;51.186;17.130;2024-03-17T13:48:08;11.80;39.95
70534;SHT31;58088;51.186;17.130;2024-03-17T13:50:38;11.82;39.97
70534;SHT31;58088;51.186;17.130;2024-03-17T13:53:08;11.94;40.69
70534;SHT31;58088;51.186;17.130;2024-03-17T13:55:34;12.06;40.17
70534;SHT31;58088;51.186;17.130;2024-03-17T13:58:01;12.13;39.96
70534;SHT31;58088;51.186;17.130;2024-03-17T14:00:28;12.19;39.80
70534;SHT31;58088;51.186;17.130;2024-03-17T14:02:57;12.15;39.46
70534;SHT31;58088;51.186;17.130;2024-03-17T14:05:25;12.00;39.22
70534;SHT31;58088;51.186;17.130;2024-03-17T14:07:53;11.85;39.27
70534;SHT31;58088;51.186;17.130;2024-03-17T14:10:21;11.81;39.61
70534;SHT31;58088;51.186;17.130;2024-03-17T14:12:49;11.90;39.60
70534;SHT31;58088;51.186;17.130;2024-03-17T14:15:16;11.99;39.41
70534;SHT31;58088;51.186;17.130;2024-03-17T14:17:44;12.07;39.35
70534;SHT31;58088;51.186;17.130;2024-03-17T14:20:12;12.14;39.26
70534;SHT31;58088;51.186;17.130;2024-03-17T14:22:40;12.14;39.36
70534;SHT31;58088;51.186;17.130;2024-03-17T14:25:09;12.11;39.44
70534;SHT31;58088;51.186;17.130;2024-03-17T14:27:40;12.01;39.08
70534;SHT31;58088;51.186;17.130;2024-03-17T14:30:06;11.81;39.15
70534;SHT31;58088;51.186;17.130;2024-03-17T14:32:33;11.79;39.85
70534;SHT31;58088;51.186;17.130;2024-03-17T14:35:00;11.66;39.54
70534;SHT31;58088;51.186;17.130;2024-03-17T14:37:26;11.54;39.50
70534;SHT31;58088;51.186;17.130;2024-03-17T14:39:53;11.41;39.70
70534;SHT31;58088;51.186;17.130;2024-03-17T14:42:20;11.35;40.02
70534;SHT31;58088;51.186;17.130;2024-03-17T14:44:46;11.37;39.70
70534;SHT31;58088;51.186;17.130;2024-03-17T14:47:13;11.41;40.00
70534;SHT31;58088;51.186;17.130;2024-03-17T14:49:41;11.43;39.72
70534;SHT31;58088;51.186;17.130;2024-03-17T14:52:08;11.39;39.83
70534;SHT31;58088;51.186;17.130;2024-03-17T14:54:35;11.40;40.36
70534;SHT31;58088;51.186;17.130;2024-03-17T14:57:01;11.46;40.29
70534;SHT31;58088;51.186;17.130;2024-03-17T14:59:27;11.48;39.67
70534;SHT31;58088;51.186;17.130;2024-03-17T15:01:54;11.49;39.80
70534;SHT31;58088;51.186;17.130;2024-03-17T15:04:21;11.50;40.68
70534;SHT31;58088;51.186;17.130;2024-03-17T15:06:47;11.47;40.44
70534;SHT31;58088;51.186;17.130;2024-03-17T15:09:13;11.42;41.18
70534;SHT31;58088;51.186;17.130;2024-03-17T15:11:44;11.37;40.95
70534;SHT31;58088;51.186;17.130;2024-03-17T15:14:14;11.28;40.99
70534;SHT31;58088;51.186;17.130;2024-03-17T15:16:40;11.22;41.56
70534;SHT31;58088;51.186;17.130;2024-03-17T15:19:06;11.19;41.84
70534;SHT31;58088;51.186;17.130;2024-03-17T15:21:33;11.14;41.84
70534;SHT31;58088;51.186;17.130;2024-03-17T15:24:00;11.07;42.05
70534;SHT31;58088;51.186;17.130;2024-03-17T15:26:30;11.03;42.19
70534;SHT31;58088;51.186;17.130;2024-03-17T15:28:56;10.98;42.34
70534;SHT31;58088;51.186;17.130;2024-03-17T15:31:23;10.96;42.70
70534;SHT31;58088;51.186;17.130;2024-03-17T15:33:50;10.98;43.31
70534;SHT31;58088;51.186;17.130;2024-03-17T15:36:17;10.98;43.54
70534;SHT31;58088;51.186;17.130;2024-03-17T15:38:45;10.93;43.90
70534;SHT31;58088;51.186;17.130;2024-03-17T15:41:12;10.84;44.28
70534;SHT31;58088;51.186;17.130;2024-03-17T15:43:38;10.75;44.39
70534;SHT31;58088;51.186;17.130;2024-03-17T15:46:13;10.71;44.74
70534;SHT31;58088;51.186;17.130;2024-03-17T15:48:47;10.67;45.07
70534;SHT31;58088;51.186;17.130;2024-03-17T15:51:15;10.65;45.21